Time;durP1;ratioP1;P1;durP2;ratioP2;P2;SDS_P1;SDS_P2;PMS_P1;PMS_P2;Temp;Humidity;BMP_temperature;BMP_pressure;BME280_temperature;BME280_humidity;BME280_pressure;Samples;Min_cycle;Max_cycle;Signal;HPM_P1;HPM_P2
2024/01/30 00:01:15;;;;;;;1.55;1.00;;;6.90;99.90;;;;;;5022270;28;20435;-67
2024/01/30 00:03:41;;;;;;;0.15;0.15;;;6.90;99.90;;;;;;5016239;28;20128;-67
2024/01/30 00:06:11;;;;;;;0.47;0.47;;;7.00;99.90;;;;;;5027346;28;20168;-67
2024/01/30 00:08:36;;;;;;;1.17;1.10;;;6.90;99.90;;;;;;5026595;28;20054;-67
2024/01/30 00:11:02;;;;;;;0.10;0.10;;;6.90;99.90;;;;;;5017970;28;20457;-67
2024/01/30 00:13:27;;;;;;;0.63;0.63;;;6.90;99.90;;;;;;5017706;28;20160;-67
2024/01/30 00:15:53;;;;;;;0.60;0.60;;;6.80;99.90;;;;;;5016959;28;20049;-68
2024/01/30 00:18:19;;;;;;;0.43;0.43;;;6.80;99.90;;;;;;5017974;28;20669;-67
2024/01/30 00:20:45;;;;;;;1.58;1.20;;;6.70;99.90;;;;;;5016153;28;20786;-67
2024/01/30 00:23:11;;;;;;;0.10;0.10;;;6.70;99.90;;;;;;5021769;28;20084;-67
2024/01/30 00:25:36;;;;;;;0.60;0.60;;;6.70;99.90;;;;;;5026261;28;20138;-68
2024/01/30 00:28:02;;;;;;;0.55;0.55;;;6.70;99.90;;;;;;5025704;28;20034;-67
2024/01/30 00:30:28;;;;;;;5.97;1.48;;;6.60;99.90;;;;;;5025453;28;20041;-68
2024/01/30 00:32:54;;;;;;;0.10;0.10;;;6.70;99.90;;;;;;5027596;28;20064;-67
2024/01/30 00:35:21;;;;;;;1.90;1.55;;;6.60;99.90;;;;;;5028634;28;20053;-67
2024/01/30 00:37:47;;;;;;;0.35;0.35;;;6.60;99.90;;;;;;5019085;28;20037;-67
2024/01/30 00:40:15;;;;;;;1.27;1.17;;;6.60;99.90;;;;;;5030189;28;20061;-67
2024/01/30 00:42:42;;;;;;;1.00;1.00;;;6.50;99.90;;;;;;5030091;28;20096;-68
2024/01/30 00:45:13;;;;;;;0.10;0.10;;;6.60;99.90;;;;;;5025887;28;20037;-67
2024/01/30 00:47:38;;;;;;;5.35;2.00;;;6.60;99.90;;;;;;5032840;28;20485;-67
2024/01/30 00:50:05;;;;;;;1.10;1.08;;;6.60;99.90;;;;;;5026289;28;20049;-67
2024/01/30 00:52:30;;;;;;;2.65;2.35;;;6.60;99.90;;;;;;5022614;28;20132;-67
2024/01/30 00:54:56;;;;;;;1.88;0.80;;;6.70;99.90;;;;;;5025571;28;20140;-67
2024/01/30 00:57:21;;;;;;;2.85;1.25;;;6.60;99.90;;;;;;5037562;28;20050;-67
2024/01/30 00:59:47;;;;;;;0.55;0.55;;;6.60;99.90;;;;;;5027486;28;20120;-67
2024/01/30 01:02:13;;;;;;;4.68;1.77;;;6.60;99.90;;;;;;5022337;28;20107;-67
2024/01/30 01:04:39;;;;;;;0.68;0.68;;;6.60;99.90;;;;;;5044334;28;20077;-67
2024/01/30 01:07:04;;;;;;;0.20;0.20;;;6.60;99.90;;;;;;5030031;28;20064;-68
2024/01/30 01:09:30;;;;;;;0.30;0.30;;;6.60;99.90;;;;;;5032968;28;20365;-67
2024/01/30 01:11:55;;;;;;;0.10;0.10;;;6.50;99.90;;;;;;5025595;28;20107;-67
2024/01/30 01:14:21;;;;;;;3.00;1.10;;;6.50;99.90;;;;;;5028293;28;20064;-68
2024/01/30 01:16:46;;;;;;;0.45;0.45;;;6.60;99.90;;;;;;5019387;28;20084;-68
2024/01/30 01:19:12;;;;;;;0.98;0.98;;;6.60;99.90;;;;;;5024438;28;20049;-68
2024/01/30 01:21:38;;;;;;;1.17;1.17;;;6.50;99.90;;;;;;5021135;28;20046;-68
2024/01/30 01:24:03;;;;;;;0.55;0.35;;;6.60;99.90;;;;;;5026942;28;20449;-68
2024/01/30 01:26:29;;;;;;;0.77;0.77;;;6.60;99.90;;;;;;5024623;28;20053;-68
2024/01/30 01:28:55;;;;;;;0.25;0.25;;;6.70;99.90;;;;;;5029768;28;20103;-68
2024/01/30 01:31:24;;;;;;;0.57;0.57;;;6.60;99.90;;;;;;5029406;28;20033;-68
2024/01/30 01:33:50;;;;;;;0.25;0.25;;;6.60;99.90;;;;;;5018503;28;20068;-68
2024/01/30 01:36:15;;;;;;;0.47;0.47;;;6.70;99.90;;;;;;5022255;28;20057;-68
2024/01/30 01:38:41;;;;;;;0.57;0.57;;;6.70;99.90;;;;;;5024260;28;20045;-68
2024/01/30 01:41:07;;;;;;;0.25;0.25;;;6.70;99.90;;;;;;5026801;28;20045;-68
2024/01/30 01:43:32;;;;;;;0.20;0.20;;;6.80;99.90;;;;;;5017099;28;20045;-68
2024/01/30 01:45:58;;;;;;;0.43;0.43;;;6.80;99.90;;;;;;5029550;28;20038;-68
2024/01/30 01:48:24;;;;;;;0.43;0.43;;;6.80;99.90;;;;;;5027512;28;20549;-68
2024/01/30 01:50:51;;;;;;;1.27;1.00;;;6.80;99.90;;;;;;5029220;28;20171;-68
2024/01/30 01:53:17;;;;;;;0.10;0.10;;;6.80;99.90;;;;;;5019173;28;20065;-68
2024/01/30 01:55:42;;;;;;;0.15;0.15;;;6.80;99.90;;;;;;5028515;28;20098;-68
2024/01/30 01:58:09;;;;;;;0.85;0.85;;;6.80;99.90;;;;;;5023283;28;20038;-69
2024/01/30 02:00:39;;;;;;;1.75;1.35;;;6.80;99.90;;;;;;5027444;28;20064;-69
2024/01/30 02:03:06;;;;;;;1.00;1.00;;;6.80;99.90;;;;;;5026744;28;20049;-68
2024/01/30 02:05:32;;;;;;;0.30;0.30;;;6.80;99.90;;;;;;5028055;28;20080;-68
2024/01/30 02:07:58;;;;;;;3.65;0.90;;;6.90;99.90;;;;;;5018930;28;20076;-68
2024/01/30 02:10:23;;;;;;;0.50;0.50;;;6.90;99.90;;;;;;5023346;28;20124;-68
2024/01/30 02:12:49;;;;;;;0.70;0.70;;;6.90;99.90;;;;;;5044195;28;20083;-69
2024/01/30 02:15:15;;;;;;;0.47;0.47;;;6.90;99.90;;;;;;5026117;28;20064;-69
2024/01/30 02:17:41;;;;;;;0.30;0.30;;;7.00;99.90;;;;;;5015804;28;20413;-68
2024/01/30 02:20:07;;;;;;;1.30;1.27;;;7.00;99.90;;;;;;5023913;28;20126;-68
2024/01/30 02:22:35;;;;;;;0.50;0.50;;;7.00;99.90;;;;;;5025851;28;20049;-68
2024/01/30 02:25:00;;;;;;;0.45;0.45;;;7.00;99.90;;;;;;5022197;28;20122;-67
2024/01/30 02:27:26;;;;;;;0.10;0.10;;;7.00;99.90;;;;;;5022356;28;20049;-67
2024/01/30 02:29:52;;;;;;;1.50;1.30;;;6.90;99.90;;;;;;5028430;28;20045;-67
2024/01/30 02:32:17;;;;;;;0.20;0.20;;;7.00;99.90;;;;;;5044085;28;20034;-67
2024/01/30 02:34:43;;;;;;;0.10;0.10;;;7.00;99.90;;;;;;5016534;28;20501;-67
2024/01/30 02:37:08;;;;;;;0.30;0.30;;;7.00;99.90;;;;;;5022678;28;20128;-67
2024/01/30 02:39:34;;;;;;;0.63;0.63;;;7.10;99.90;;;;;;5019628;28;20516;-67
2024/01/30 02:41:59;;;;;;;0.55;0.55;;;7.10;99.90;;;;;;5024328;28;20049;-67
2024/01/30 02:44:25;;;;;;;2.00;1.25;;;7.00;99.90;;;;;;5021177;28;20057;-67
2024/01/30 02:46:51;;;;;;;0.98;0.63;;;7.10;99.90;;;;;;5020570;28;20099;-67
2024/01/30 02:49:16;;;;;;;4.05;1.98;;;7.10;99.90;;;;;;5029251;28;20064;-67
2024/01/30 02:51:42;;;;;;;0.25;0.25;;;7.10;99.90;;;;;;5020871;28;20084;-67
2024/01/30 02:54:07;;;;;;;0.35;0.35;;;7.10;99.90;;;;;;5025270;28;20045;-68
2024/01/30 02:56:33;;;;;;;0.32;0.32;;;7.10;99.90;;;;;;5014358;28;20485;-67
2024/01/30 02:58:59;;;;;;;1.13;1.10;;;7.10;99.90;;;;;;5022046;28;20091;-68
2024/01/30 03:01:24;;;;;;;0.85;0.85;;;7.10;99.90;;;;;;5043738;28;20400;-67
2024/01/30 03:03:50;;;;;;;0.20;0.20;;;7.10;99.90;;;;;;5017443;28;20433;-67
2024/01/30 03:06:17;;;;;;;2.28;1.10;;;7.10;99.90;;;;;;5038127;28;20041;-68
2024/01/30 03:08:43;;;;;;;0.20;0.20;;;7.10;99.90;;;;;;5026514;28;20120;-67
2024/01/30 03:11:08;;;;;;;0.77;0.77;;;7.10;99.90;;;;;;5026600;28;20041;-67
2024/01/30 03:13:34;;;;;;;0.00;0.00;;;7.10;99.90;;;;;;5016334;28;20042;-68
2024/01/30 03:15:59;;;;;;;2.63;2.28;;;7.10;99.90;;;;;;5018768;28;20049;-67
2024/01/30 03:18:25;;;;;;;0.93;0.93;;;7.00;99.90;;;;;;5021475;28;20053;-68
2024/01/30 03:20:50;;;;;;;0.30;0.30;;;7.00;99.90;;;;;;5026841;28;20117;-68
2024/01/30 03:23:16;;;;;;;2.75;1.65;;;7.00;99.90;;;;;;5023336;28;20760;-68
2024/01/30 03:25:42;;;;;;;0.10;0.10;;;7.00;99.90;;;;;;5016646;28;20085;-67
2024/01/30 03:28:07;;;;;;;5.30;1.92;;;7.00;99.90;;;;;;5023281;28;20072;-68
2024/01/30 03:30:35;;;;;;;0.65;0.65;;;6.90;99.90;;;;;;5020922;28;20038;-68
2024/01/30 03:33:00;;;;;;;0.30;0.30;;;7.00;99.90;;;;;;5023032;28;20068;-68
2024/01/30 03:35:26;;;;;;;0.20;0.20;;;6.90;99.90;;;;;;5017714;28;20477;-68
2024/01/30 03:37:51;;;;;;;2.67;1.77;;;6.90;99.90;;;;;;5025793;28;20050;-68
2024/01/30 03:40:17;;;;;;;0.10;0.10;;;7.00;99.90;;;;;;5026309;28;20065;-67
2024/01/30 03:42:42;;;;;;;1.55;1.05;;;7.00;99.90;;;;;;5022319;28;20705;-68
2024/01/30 03:45:08;;;;;;;0.10;0.10;;;7.00;99.90;;;;;;5014917;28;20033;-68
2024/01/30 03:47:34;;;;;;;0.10;0.10;;;7.00;99.90;;;;;;5019925;28;20053;-68
2024/01/30 03:49:59;;;;;;;1.38;1.33;;;7.00;99.90;;;;;;5031213;28;20045;-68
2024/01/30 03:52:25;;;;;;;0.70;0.70;;;7.00;99.90;;;;;;5014023;28;20045;-68
2024/01/30 03:54:50;;;;;;;0.65;0.65;;;7.00;99.90;;;;;;5022722;28;20124;-68
2024/01/30 03:57:16;;;;;;;0.65;0.65;;;7.00;99.90;;;;;;5026618;28;20317;-68
2024/01/30 03:59:42;;;;;;;0.22;0.22;;;7.10;99.90;;;;;;5023264;28;20049;-68
2024/01/30 04:02:09;;;;;;;1.10;1.00;;;7.10;99.90;;;;;;5027894;28;20045;-68
2024/01/30 04:04:35;;;;;;;1.35;1.05;;;7.00;99.90;;;;;;5030174;28;20520;-68
2024/01/30 04:07:00;;;;;;;0.20;0.20;;;7.10;99.90;;;;;;5033160;28;20069;-68
2024/01/30 04:09:28;;;;;;;0.10;0.10;;;7.10;99.90;;;;;;5026424;28;20037;-68
2024/01/30 04:11:54;;;;;;;0.63;0.63;;;7.10;99.90;;;;;;5023409;28;20041;-68
2024/01/30 04:14:19;;;;;;;0.25;0.25;;;7.10;99.90;;;;;;5025717;28;20041;-68
2024/01/30 04:16:45;;;;;;;0.68;0.63;;;7.10;99.90;;;;;;5032680;28;20111;-68
2024/01/30 04:19:10;;;;;;;0.47;0.47;;;7.20;99.90;;;;;;5032820;28;20073;-68
2024/01/30 04:21:36;;;;;;;0.60;0.60;;;7.20;99.90;;;;;;5026734;28;20050;-68
2024/01/30 04:24:01;;;;;;;0.10;0.10;;;7.20;99.90;;;;;;5033147;28;20434;-68
2024/01/30 04:26:27;;;;;;;2.85;1.55;;;7.20;99.90;;;;;;5030989;28;20462;-68
2024/01/30 04:28:53;;;;;;;1.90;1.17;;;7.20;99.90;;;;;;5026972;28;20049;-68
2024/01/30 04:31:18;;;;;;;0.25;0.25;;;7.20;99.90;;;;;;5024580;28;20156;-68
2024/01/30 04:33:44;;;;;;;1.85;0.82;;;7.20;99.90;;;;;;5044419;28;20088;-68
2024/01/30 04:36:12;;;;;;;0.73;0.73;;;7.20;99.90;;;;;;5031873;28;20052;-67
2024/01/30 04:38:41;;;;;;;2.30;2.10;;;7.20;99.90;;;;;;5043386;28;20054;-68
2024/01/30 04:41:07;;;;;;;0.32;0.32;;;7.20;99.90;;;;;;5027808;28;20053;-68
2024/01/30 04:43:33;;;;;;;5.45;0.82;;;7.10;99.90;;;;;;5028582;28;20041;-68
2024/01/30 04:45:58;;;;;;;5.68;1.55;;;7.20;99.90;;;;;;5031977;28;20186;-68
2024/01/30 04:48:24;;;;;;;0.32;0.32;;;7.10;99.90;;;;;;5049141;28;20037;-68
2024/01/30 04:50:50;;;;;;;0.28;0.28;;;7.10;99.90;;;;;;5022480;28;20042;-68
2024/01/30 04:53:16;;;;;;;0.17;0.17;;;7.20;99.90;;;;;;5033381;28;20056;-68
2024/01/30 04:55:41;;;;;;;9.32;0.98;;;7.20;99.90;;;;;;5030168;28;20091;-68
2024/01/30 04:58:07;;;;;;;0.38;0.38;;;7.20;99.90;;;;;;5027389;28;20041;-68
2024/01/30 05:00:33;;;;;;;1.00;1.00;;;7.30;99.90;;;;;;5029418;28;20187;-68
2024/01/30 05:02:58;;;;;;;0.80;0.80;;;7.30;99.90;;;;;;5030158;28;20448;-68
2024/01/30 05:05:24;;;;;;;1.35;1.25;;;7.30;99.90;;;;;;5021985;28;20057;-68
2024/01/30 05:07:49;;;;;;;0.30;0.30;;;7.30;99.90;;;;;;5030106;28;20041;-68
2024/01/30 05:10:15;;;;;;;0.52;0.52;;;7.30;99.90;;;;;;5025081;28;20040;-68
2024/01/30 05:12:40;;;;;;;0.38;0.38;;;7.30;99.90;;;;;;5023434;28;20049;-68
2024/01/30 05:15:06;;;;;;;0.20;0.20;;;7.30;99.90;;;;;;5022108;28;20148;-68
2024/01/30 05:17:33;;;;;;;0.60;0.60;;;7.20;99.90;;;;;;5028073;28;20056;-68
2024/01/30 05:19:58;;;;;;;0.25;0.25;;;7.20;99.90;;;;;;5023742;28;20048;-68
2024/01/30 05:22:24;;;;;;;1.08;1.08;;;7.20;99.90;;;;;;5025890;28;20072;-68
2024/01/30 05:24:49;;;;;;;0.10;0.10;;;7.20;99.90;;;;;;5029241;28;20048;-68
2024/01/30 05:27:15;;;;;;;0.85;0.85;;;7.30;99.90;;;;;;5029029;28;20045;-68
2024/01/30 05:29:41;;;;;;;1.15;1.13;;;7.30;99.90;;;;;;5026026;28;20045;-68
2024/01/30 05:32:06;;;;;;;0.47;0.32;;;7.30;99.90;;;;;;5028475;28;20497;-68
2024/01/30 05:34:32;;;;;;;0.60;0.60;;;7.30;99.90;;;;;;5024799;28;20037;-67
2024/01/30 05:36:58;;;;;;;1.63;1.55;;;7.30;99.90;;;;;;5024884;28;20057;-68
2024/01/30 05:39:24;;;;;;;3.10;1.75;;;7.30;99.90;;;;;;5037725;28;20042;-68
2024/01/30 05:41:49;;;;;;;0.20;0.20;;;7.30;99.90;;;;;;5019452;28;20520;-67
2024/01/30 05:44:15;;;;;;;0.20;0.20;;;7.40;99.90;;;;;;5022756;28;20050;-67
2024/01/30 05:46:40;;;;;;;0.63;0.63;;;7.30;99.90;;;;;;5023676;28;20049;-68
2024/01/30 05:49:06;;;;;;;1.55;1.00;;;7.40;99.90;;;;;;5025647;28;20041;-68
2024/01/30 05:51:32;;;;;;;0.52;0.52;;;7.40;99.90;;;;;;5017817;28;20045;-68
2024/01/30 05:53:57;;;;;;;0.10;0.10;;;7.50;99.90;;;;;;5024257;28;20037;-68
2024/01/30 05:56:23;;;;;;;0.10;0.10;;;7.50;99.90;;;;;;5027194;28;20041;-68
2024/01/30 05:58:50;;;;;;;0.90;0.88;;;7.50;99.90;;;;;;5022217;28;20600;-68
2024/01/30 06:01:16;;;;;;;0.13;0.13;;;7.50;99.90;;;;;;5020377;28;20175;-68
2024/01/30 06:03:43;;;;;;;0.00;0.00;;;7.50;99.90;;;;;;5025963;28;20132;-68
2024/01/30 06:06:09;;;;;;;0.17;0.17;;;7.50;99.90;;;;;;5028910;28;20038;-68
2024/01/30 06:08:34;;;;;;;0.75;0.75;;;7.60;99.90;;;;;;5023885;28;20042;-68
2024/01/30 06:11:00;;;;;;;0.20;0.20;;;7.60;99.90;;;;;;5021886;28;20128;-68
2024/01/30 06:13:26;;;;;;;0.25;0.25;;;7.60;99.90;;;;;;5027398;28;20041;-68
2024/01/30 06:15:52;;;;;;;0.20;0.20;;;7.60;99.90;;;;;;5014852;28;20160;-68
2024/01/30 06:18:17;;;;;;;1.65;1.55;;;7.60;99.90;;;;;;5018389;28;20037;-68
2024/01/30 06:20:43;;;;;;;0.30;0.30;;;7.60;99.90;;;;;;5018167;28;20040;-68
2024/01/30 06:23:09;;;;;;;0.10;0.10;;;7.60;99.90;;;;;;5023129;28;20100;-67
2024/01/30 06:25:34;;;;;;;0.20;0.20;;;7.60;99.90;;;;;;5021983;28;20558;-68
2024/01/30 06:28:00;;;;;;;0.20;0.20;;;7.60;99.90;;;;;;5029374;28;20046;-68
2024/01/30 06:30:26;;;;;;;0.10;0.10;;;7.60;99.90;;;;;;5017466;28;20048;-68
2024/01/30 06:32:51;;;;;;;0.52;0.52;;;7.60;99.90;;;;;;5028195;28;20368;-68
2024/01/30 06:35:17;;;;;;;0.47;0.47;;;7.60;99.90;;;;;;5026485;28;20049;-68
2024/01/30 06:37:43;;;;;;;1.33;0.82;;;7.60;99.90;;;;;;5017922;28;20726;-68
2024/01/30 06:40:09;;;;;;;0.38;0.32;;;7.60;99.90;;;;;;5028451;28;20057;-68
2024/01/30 06:42:35;;;;;;;0.15;0.15;;;7.60;99.90;;;;;;5022396;28;20046;-68
2024/01/30 06:45:00;;;;;;;0.45;0.45;;;7.60;99.90;;;;;;5021283;28;20092;-68
2024/01/30 06:47:26;;;;;;;0.15;0.15;;;7.60;99.90;;;;;;5035965;28;20046;-68
2024/01/30 06:49:51;;;;;;;0.10;0.10;;;7.60;99.90;;;;;;5026308;28;20127;-68
2024/01/30 06:52:17;;;;;;;0.43;0.43;;;7.70;99.90;;;;;;5018571;28;20041;-68
2024/01/30 06:54:42;;;;;;;1.00;0.47;;;7.60;99.90;;;;;;5024005;28;20445;-68
2024/01/30 06:57:11;;;;;;;1.83;1.73;;;7.60;99.90;;;;;;5019167;28;20049;-68
2024/01/30 06:59:37;;;;;;;0.17;0.17;;;7.60;99.90;;;;;;5025062;28;20045;-68
2024/01/30 07:02:03;;;;;;;2.42;2.03;;;7.60;99.90;;;;;;5015177;28;20476;-68
2024/01/30 07:04:28;;;;;;;0.52;0.52;;;7.60;99.90;;;;;;5019802;28;20115;-68
2024/01/30 07:06:54;;;;;;;0.40;0.40;;;7.60;99.90;;;;;;5016940;28;20050;-67
2024/01/30 07:09:19;;;;;;;3.20;1.27;;;7.60;99.90;;;;;;5029937;28;20037;-68
2024/01/30 07:11:45;;;;;;;0.43;0.43;;;7.70;99.90;;;;;;5019132;28;20053;-68
2024/01/30 07:14:11;;;;;;;1.55;1.15;;;7.80;99.90;;;;;;5028271;28;20076;-68
2024/01/30 07:16:36;;;;;;;0.80;0.80;;;7.80;99.90;;;;;;5026178;28;20053;-68
2024/01/30 07:19:02;;;;;;;0.10;0.10;;;7.80;99.90;;;;;;5021288;28;20124;-67
2024/01/30 07:21:28;;;;;;;0.50;0.50;;;7.80;99.90;;;;;;5037741;28;20099;-68
2024/01/30 07:23:57;;;;;;;0.10;0.10;;;7.80;99.90;;;;;;5018106;28;20587;-67
2024/01/30 07:26:22;;;;;;;0.35;0.35;;;7.80;99.90;;;;;;5020076;28;20033;-68
2024/01/30 07:28:48;;;;;;;0.90;0.88;;;7.90;99.90;;;;;;5020281;28;20045;-67
2024/01/30 07:31:14;;;;;;;0.10;0.10;;;7.80;99.90;;;;;;5021662;28;20389;-67
2024/01/30 07:33:39;;;;;;;0.63;0.63;;;7.80;99.90;;;;;;5025857;28;20049;-67
2024/01/30 07:36:05;;;;;;;0.30;0.30;;;7.80;99.90;;;;;;5024296;28;20049;-67
2024/01/30 07:38:34;;;;;;;1.08;0.95;;;7.80;99.90;;;;;;5023413;28;20124;-68
2024/01/30 07:40:59;;;;;;;0.43;0.43;;;7.80;99.90;;;;;;5025737;28;20467;-67
2024/01/30 07:43:25;;;;;;;3.33;0.90;;;7.80;99.90;;;;;;5027693;28;20033;-67
2024/01/30 07:45:51;;;;;;;0.10;0.10;;;7.80;99.90;;;;;;5018410;28;20044;-68
2024/01/30 07:48:17;;;;;;;0.40;0.40;;;7.80;99.90;;;;;;5020959;28;20045;-69
2024/01/30 07:50:42;;;;;;;0.30;0.30;;;7.90;99.90;;;;;;5025591;28;20041;-68
2024/01/30 07:53:08;;;;;;;0.10;0.10;;;7.80;99.90;;;;;;5017851;28;20077;-68
2024/01/30 07:55:33;;;;;;;1.13;1.10;;;7.80;99.90;;;;;;5023788;28;20055;-68
2024/01/30 07:58:00;;;;;;;0.32;0.32;;;7.90;99.90;;;;;;5026299;28;20043;-68
2024/01/30 08:00:26;;;;;;;0.20;0.20;;;7.90;99.90;;;;;;5021293;28;20073;-68
2024/01/30 08:02:55;;;;;;;0.43;0.43;;;8.00;99.90;;;;;;5020147;28;20104;-67
2024/01/30 08:05:22;;;;;;;0.10;0.10;;;8.00;99.90;;;;;;5037388;28;20561;-68
2024/01/30 08:07:48;;;;;;;0.43;0.43;;;8.10;99.90;;;;;;5021494;28;20048;-68
2024/01/30 08:10:14;;;;;;;0.25;0.25;;;8.20;99.90;;;;;;5017912;28;20049;-68
2024/01/30 08:12:40;;;;;;;0.45;0.45;;;8.20;99.90;;;;;;5031971;28;20045;-68
2024/01/30 08:15:07;;;;;;;0.32;0.32;;;8.40;99.90;;;;;;5036962;28;20042;-68
2024/01/30 08:17:33;;;;;;;0.30;0.30;;;8.40;99.90;;;;;;5039066;28;20057;-65
2024/01/30 08:19:58;;;;;;;0.50;0.50;;;8.50;99.90;;;;;;5042176;28;20136;-67
2024/01/30 08:22:24;;;;;;;3.95;3.03;;;8.60;99.90;;;;;;5022764;28;20657;-68
2024/01/30 08:24:50;;;;;;;0.22;0.22;;;8.70;99.90;;;;;;5016870;28;20103;-68
2024/01/30 08:27:15;;;;;;;0.98;0.98;;;8.80;99.90;;;;;;5019973;28;20494;-68
2024/01/30 08:29:41;;;;;;;0.63;0.63;;;8.80;99.90;;;;;;5022783;28;20047;-68
2024/01/30 08:32:07;;;;;;;5.00;4.10;;;8.90;99.90;;;;;;5024803;28;20053;-68
2024/01/30 08:34:33;;;;;;;3.97;3.10;;;8.90;99.90;;;;;;5026505;28;20548;-67
2024/01/30 08:36:59;;;;;;;0.20;0.20;;;9.00;99.90;;;;;;5018941;28;20041;-68
2024/01/30 08:39:24;;;;;;;0.52;0.52;;;9.10;99.90;;;;;;5023792;28;20037;-68
2024/01/30 08:41:50;;;;;;;1.85;1.75;;;9.10;99.90;;;;;;5032406;28;20446;-67
2024/01/30 08:44:17;;;;;;;0.47;0.47;;;9.20;99.90;;;;;;5015474;28;20034;-67
2024/01/30 08:46:44;;;;;;;2.90;1.85;;;9.20;99.90;;;;;;5028323;28;20049;-68
2024/01/30 08:49:10;;;;;;;1.02;1.02;;;9.30;99.90;;;;;;5028937;28;20053;-68
2024/01/30 08:51:36;;;;;;;0.65;0.65;;;9.30;99.90;;;;;;5024119;28;20050;-68
2024/01/30 08:54:02;;;;;;;0.65;0.65;;;9.40;99.90;;;;;;5017535;28;20068;-68
2024/01/30 08:56:28;;;;;;;0.75;0.75;;;9.40;99.90;;;;;;5022272;28;20045;-68
2024/01/30 08:58:54;;;;;;;0.25;0.25;;;9.40;99.90;;;;;;5025723;28;20531;-68
2024/01/30 09:01:19;;;;;;;0.40;0.40;;;9.40;99.90;;;;;;5020985;28;20041;-68
2024/01/30 09:03:46;;;;;;;0.47;0.47;;;9.40;99.90;;;;;;5020797;28;20048;-68
2024/01/30 09:06:12;;;;;;;0.10;0.10;;;9.50;99.90;;;;;;5026612;28;20059;-68
2024/01/30 09:08:38;;;;;;;0.68;0.65;;;9.40;99.90;;;;;;5018211;28;20042;-68
2024/01/30 09:11:14;;;;;;;0.52;0.52;;;9.50;99.90;;;;;;5022804;28;20045;-68
2024/01/30 09:13:40;;;;;;;1.15;1.15;;;9.50;99.90;;;;;;5022544;28;20387;-68
2024/01/30 09:16:06;;;;;;;18.23;4.10;;;9.50;99.90;;;;;;5025369;28;20052;-68
2024/01/30 09:18:32;;;;;;;0.25;0.25;;;9.60;99.90;;;;;;5026089;28;20485;-68
2024/01/30 09:20:58;;;;;;;0.52;0.52;;;9.60;99.90;;;;;;5023323;28;20167;-68
2024/01/30 09:23:24;;;;;;;1.85;1.75;;;9.60;99.90;;;;;;5018674;28;20128;-68
2024/01/30 09:25:50;;;;;;;0.75;0.75;;;9.60;99.90;;;;;;5021242;28;20037;-68
2024/01/30 09:28:17;;;;;;;1.73;1.23;;;9.60;99.90;;;;;;5025959;28;20053;-68
2024/01/30 09:30:42;;;;;;;1.02;1.02;;;9.60;99.90;;;;;;5035906;28;20049;-68
2024/01/30 09:33:08;;;;;;;0.45;0.45;;;9.70;99.90;;;;;;5026912;28;20111;-68
2024/01/30 09:35:34;;;;;;;0.30;0.30;;;9.60;99.90;;;;;;5029405;28;20416;-68
2024/01/30 09:37:59;;;;;;;0.70;0.70;;;9.60;99.90;;;;;;5030508;28;20033;-68
2024/01/30 09:40:25;;;;;;;9.38;3.65;;;9.60;99.90;;;;;;5028388;28;20061;-68
2024/01/30 09:42:51;;;;;;;0.10;0.10;;;9.60;99.90;;;;;;5029558;28;20061;-68
2024/01/30 09:45:25;;;;;;;0.68;0.68;;;9.60;99.90;;;;;;5028687;28;20045;-68
2024/01/30 09:47:50;;;;;;;;;;;9.60;99.90;;;;;;5029687;28;20664;-68
2024/01/30 09:50:16;;;;;;;0.63;0.63;;;9.70;99.90;;;;;;5019363;28;19932;-68
2024/01/30 09:52:47;;;;;;;0.20;0.20;;;9.70;99.90;;;;;;5022258;28;20370;-68
2024/01/30 09:55:13;;;;;;;0.60;0.60;;;9.70;99.90;;;;;;5028802;28;20107;-68
2024/01/30 09:57:39;;;;;;;10.20;1.75;;;9.80;99.90;;;;;;5017890;28;20141;-68
2024/01/30 10:00:08;;;;;;;0.13;0.13;;;9.80;99.90;;;;;;5024974;28;20174;-68
2024/01/30 10:02:34;;;;;;;0.45;0.45;;;9.70;99.90;;;;;;5013636;28;20061;-68
2024/01/30 10:05:00;;;;;;;0.30;0.30;;;9.80;99.90;;;;;;5026186;28;20611;-68
2024/01/30 10:07:26;;;;;;;8.15;2.47;;;9.70;99.90;;;;;;5028369;28;20029;-68
2024/01/30 10:09:53;;;;;;;0.55;0.55;;;9.70;99.90;;;;;;5018375;28;20044;-68
2024/01/30 10:12:18;;;;;;;0.85;0.85;;;9.70;99.90;;;;;;5022992;28;20046;-68
2024/01/30 10:14:44;;;;;;;3.13;2.83;;;9.70;99.90;;;;;;5019890;28;20052;-68
2024/01/30 10:17:11;;;;;;;0.17;0.17;;;9.70;99.90;;;;;;5019907;28;20101;-68
2024/01/30 10:19:38;;;;;;;0.20;0.20;;;9.70;99.90;;;;;;5026435;28;20517;-68
2024/01/30 10:22:04;;;;;;;0.30;0.30;;;9.60;99.90;;;;;;5021851;28;20033;-68
2024/01/30 10:24:30;;;;;;;0.10;0.10;;;9.60;99.90;;;;;;5025860;28;20362;-68
2024/01/30 10:26:56;;;;;;;0.00;0.00;;;9.60;99.90;;;;;;5026222;28;20049;-69
2024/01/30 10:29:21;;;;;;;0.13;0.13;;;9.50;99.90;;;;;;5021839;28;20808;-70
2024/01/30 10:32:01;;;;;;;0.10;0.10;;;9.50;99.90;;;;;;5019179;28;20041;-68
2024/01/30 10:34:28;;;;;;;0.10;0.10;;;9.40;99.90;;;;;;5024870;28;20079;-68
2024/01/30 10:37:02;;;;;;;0.35;0.35;;;9.40;99.90;;;;;;5018937;28;20050;-68
2024/01/30 10:39:30;;;;;;;0.85;0.65;;;9.40;99.90;;;;;;5025247;28;20056;-68
2024/01/30 10:41:59;;;;;;;0.10;0.10;;;9.40;99.90;;;;;;5022327;28;20045;-68
2024/01/30 10:44:28;;;;;;;1.08;0.95;;;9.40;99.90;;;;;;5024156;28;20075;-67
2024/01/30 10:47:01;;;;;;;7.10;1.80;;;9.30;99.90;;;;;;5027870;28;20045;-68
2024/01/30 10:49:27;;;;;;;0.10;0.10;;;9.30;99.90;;;;;;5021781;28;20049;-68
2024/01/30 10:51:53;;;;;;;0.08;0.08;;;9.30;99.90;;;;;;5018250;28;20390;-67
2024/01/30 10:54:20;;;;;;;0.20;0.20;;;9.30;99.90;;;;;;5017112;28;20052;-67
2024/01/30 10:56:46;;;;;;;0.08;0.08;;;9.30;99.90;;;;;;5020705;28;20110;-68
2024/01/30 10:59:13;;;;;;;0.80;0.80;;;9.30;99.90;;;;;;5025825;28;20053;-68
2024/01/30 11:01:39;;;;;;;0.15;0.15;;;9.20;99.90;;;;;;5017830;28;20065;-67
2024/01/30 11:04:05;;;;;;;0.10;0.10;;;9.20;99.90;;;;;;5022144;28;20049;-68
2024/01/30 11:06:30;;;;;;;0.73;0.73;;;9.20;99.90;;;;;;5027925;28;20040;-67
2024/01/30 11:09:04;;;;;;;0.10;0.10;;;9.20;99.90;;;;;;5018884;28;20119;-68
2024/01/30 11:11:29;;;;;;;0.95;0.95;;;9.20;99.90;;;;;;5021590;28;20088;-68
2024/01/30 11:13:55;;;;;;;0.10;0.10;;;9.20;99.90;;;;;;5020197;28;20049;-67
2024/01/30 11:16:21;;;;;;;0.10;0.10;;;9.10;99.90;;;;;;5019012;28;20533;-67
2024/01/30 11:18:51;;;;;;;0.00;0.00;;;9.10;99.90;;;;;;5026302;28;20045;-68
2024/01/30 11:21:17;;;;;;;0.95;0.73;;;9.10;99.90;;;;;;5021852;28;20119;-68
2024/01/30 11:23:43;;;;;;;0.00;0.00;;;9.20;99.90;;;;;;5024123;28;20080;-68
2024/01/30 11:26:11;;;;;;;0.00;0.00;;;9.10;99.90;;;;;;5019358;28;20852;-68
2024/01/30 11:28:38;;;;;;;0.00;0.00;;;9.10;99.90;;;;;;5026760;28;20284;-68
2024/01/30 11:31:04;;;;;;;0.10;0.10;;;9.10;99.90;;;;;;5012764;28;20038;-66
2024/01/30 11:33:30;;;;;;;0.10;0.10;;;9.10;99.90;;;;;;5017663;28;20069;-66
2024/01/30 11:36:01;;;;;;;0.25;0.25;;;9.10;99.90;;;;;;5022859;28;20041;-67
2024/01/30 11:38:27;;;;;;;0.00;0.00;;;9.10;99.90;;;;;;5025643;28;20624;-66
2024/01/30 11:40:55;;;;;;;0.80;0.43;;;9.10;99.90;;;;;;5019279;28;20053;-65
2024/01/30 11:43:20;;;;;;;1.38;1.27;;;9.10;99.90;;;;;;5018568;28;20038;-67
2024/01/30 11:45:46;;;;;;;10.23;1.95;;;9.10;99.90;;;;;;5023942;28;20053;-67
2024/01/30 11:48:12;;;;;;;2.25;1.88;;;9.10;99.90;;;;;;5021338;28;20121;-67
2024/01/30 11:50:42;;;;;;;0.00;0.00;;;9.10;99.90;;;;;;5025272;28;20072;-67
2024/01/30 11:53:08;;;;;;;0.10;0.10;;;9.00;99.90;;;;;;5024504;28;20040;-67
2024/01/30 11:55:35;;;;;;;0.22;0.22;;;9.00;99.90;;;;;;5023214;28;20072;-67
2024/01/30 11:58:01;;;;;;;0.00;0.00;;;9.00;99.90;;;;;;5023983;28;20045;-67
2024/01/30 12:00:27;;;;;;;0.10;0.10;;;9.00;99.90;;;;;;5017774;28;20045;-67
2024/01/30 12:02:58;;;;;;;0.10;0.10;;;9.00;99.90;;;;;;5015921;28;20087;-67
2024/01/30 12:05:24;;;;;;;2.15;2.05;;;9.00;99.90;;;;;;5022493;28;20045;-67
2024/01/30 12:07:50;;;;;;;0.10;0.10;;;9.00;99.90;;;;;;5021130;28;20050;-67
2024/01/30 12:10:17;;;;;;;0.05;0.05;;;9.00;99.90;;;;;;5018119;28;20133;-67
2024/01/30 12:12:47;;;;;;;0.40;0.40;;;9.00;99.90;;;;;;5018228;28;20565;-67
2024/01/30 12:15:14;;;;;;;0.57;0.57;;;9.00;99.90;;;;;;5022585;28;20053;-68
2024/01/30 12:17:40;;;;;;;0.08;0.08;;;9.00;99.90;;;;;;5019248;28;20409;-68
2024/01/30 12:20:13;;;;;;;0.10;0.10;;;9.10;99.90;;;;;;5014812;28;20401;-68
2024/01/30 12:22:44;;;;;;;0.00;0.00;;;9.00;99.90;;;;;;5026135;28;20052;-67
2024/01/30 12:25:11;;;;;;;0.10;0.10;;;9.00;99.90;;;;;;5025853;28;20044;-67
2024/01/30 12:27:38;;;;;;;0.10;0.10;;;9.00;99.90;;;;;;5031893;28;20073;-68
2024/01/30 12:30:12;;;;;;;0.10;0.10;;;9.00;99.90;;;;;;5026840;28;20227;-68
2024/01/30 12:32:39;;;;;;;;;;;9.00;99.90;;;;;;5024577;28;20057;-68
2024/01/30 12:35:08;;;;;;;0.40;0.40;;;9.00;99.90;;;;;;5022862;28;19931;-68
2024/01/30 12:37:34;;;;;;;0.10;0.10;;;9.00;99.90;;;;;;5026469;28;20497;-68
2024/01/30 12:40:00;;;;;;;0.00;0.00;;;9.00;99.90;;;;;;5019446;28;20061;-68
2024/01/30 12:42:27;;;;;;;0.00;0.00;;;9.00;99.90;;;;;;5027401;28;20067;-68
2024/01/30 12:44:53;;;;;;;0.25;0.25;;;9.00;99.90;;;;;;5020888;28;20374;-67
2024/01/30 12:47:20;;;;;;;0.00;0.00;;;9.10;99.90;;;;;;5027218;28;20057;-68
2024/01/30 12:49:46;;;;;;;0.93;0.90;;;9.00;99.90;;;;;;5045024;28;20049;-67
2024/01/30 12:52:13;;;;;;;0.00;0.00;;;9.00;99.90;;;;;;5025255;28;20095;-67